Terminal Aerodrome Forecast
Issued by NWS Boston, MA

Home | Current Version | Previous Version | Text Only | Print | Product List | Glossary On
Versions: 1 2 3 4 5 6 7 8 9 10 11 12 13 14 15 16 17 18 19 20 21 22 23 24 25 26 27 28 29 30 31 32 33 34 35 36 37 38 39 40 41 42 43 44 45 46 47 48 49 50
000
FTUS41 KBOX 111500 AAA
TAFPVD
TAF AMD
KPVD 111500Z 1115/1212 26007KT P6SM SCT080
     FM111800 28008KT P6SM SCT045 SCT120
     FM112300 26003KT P6SM BKN150
     FM120700 06004KT P6SM OVC030
     FM121100 05004KT P6SM VCSH OVC025=

USA.gov is the U.S. government's official web portal to all federal, state and local government web resources and services.